首页
METAR-TAF:

METAR-TAF

机场 :

Fort Madison Municipal Airport

堡垒麦迪逊, 艾奥瓦州, 美国

纬度: 40-40N, 经度: 091-20W, 海拔: 221米

当前天气观测

该预报发布于23分钟前的14:35 UTC
风速8节,风向
温度 23°C
湿度 78%
气压 1019 hPa
能見度: 16.1公里
天空无云

METAR: KFSW 221435Z AUTO 35008KT 10SM CLR 23/19 A3008 RMK AO2

时间: 09:58 (14:58 UTC)


TAF: 丢失

超过4000个机场的气象观测和天气预报(METAR&TAF报告)。

可查询的气象台以黄色和红色小点在地图上表示。

将鼠标移到小点上方,可查看气象台名称。

然后点击查看天气观测和预报。

如需切换地图:点击带黑十字的绿色按钮放大地图;点击带横线的绿色按钮缩小地图;或者点击绿色箭头查看邻近地区的地图。


METAR-TAF: